Time;durP1;ratioP1;P1;durP2;ratioP2;P2;SDS_P1;SDS_P2;PMS_P1;PMS_P2;Temp;Humidity;BMP_temperature;BMP_pressure;BME280_temperature;BME280_humidity;BME280_pressure;Samples;Min_cycle;Max_cycle;Signal;HPM_P1;HPM_P2
2021/07/30 00:04:14;;;;;;;13.67;7.90;;;;;;;;;;10250871;28;20232;-73
2021/07/30 00:09:17;;;;;;;13.33;7.50;;;;;;;;;;10255212;28;20299;-73
2021/07/30 00:14:21;;;;;;;13.33;7.47;;;;;;;;;;10259060;28;20209;-75
2021/07/30 00:19:24;;;;;;;12.07;7.57;;;;;;;;;;10262589;28;20286;-75
2021/07/30 00:24:27;;;;;;;12.50;6.67;;;;;;;;;;10261851;28;20251;-75
2021/07/30 00:29:30;;;;;;;12.77;7.33;;;;;;;;;;10252034;28;20652;-76
2021/07/30 00:34:33;;;;;;;12.07;7.20;;;;;;;;;;10262554;28;20228;-74
2021/07/30 00:39:35;;;;;;;12.57;7.20;;;;;;;;;;10238113;28;20299;-76
2021/07/30 00:44:39;;;;;;;11.87;7.30;;;;;;;;;;10248140;28;20259;-76
2021/07/30 00:49:42;;;;;;;11.07;7.00;;;;;;;;;;10254889;28;20204;-76
2021/07/30 00:54:45;;;;;;;11.30;6.73;;;;;;;;;;10252763;28;20764;-75
2021/07/30 00:59:49;;;;;;;10.67;6.17;;;;;;;;;;10248774;28;20308;-75
2021/07/30 01:04:52;;;;;;;10.87;6.17;;;;;;;;;;10267300;28;20314;-75
2021/07/30 01:09:54;;;;;;;9.60;6.00;;;;;;;;;;10244216;28;20207;-76
2021/07/30 01:14:58;;;;;;;12.67;6.40;;;;;;;;;;10253762;28;20223;-75
2021/07/30 01:20:01;;;;;;;10.23;6.37;;;;;;;;;;10262456;28;20258;-76
2021/07/30 01:25:05;;;;;;;10.00;6.20;;;;;;;;;;10246891;28;20230;-75
2021/07/30 01:30:08;;;;;;;9.97;6.23;;;;;;;;;;10272939;28;20279;-75
2021/07/30 01:35:11;;;;;;;10.93;6.80;;;;;;;;;;10240007;28;20291;-76
2021/07/30 01:40:15;;;;;;;11.00;6.90;;;;;;;;;;10247992;28;20646;-75
2021/07/30 01:45:18;;;;;;;10.80;6.53;;;;;;;;;;10252304;28;20619;-74
2021/07/30 01:50:20;;;;;;;12.87;7.03;;;;;;;;;;10252256;28;20189;-74
2021/07/30 01:55:24;;;;;;;11.37;7.10;;;;;;;;;;10245496;28;20279;-75
2021/07/30 02:00:27;;;;;;;12.00;7.30;;;;;;;;;;10241358;28;20232;-75
2021/07/30 02:05:29;;;;;;;11.07;6.67;;;;;;;;;;10248654;28;20223;-74
2021/07/30 02:10:33;;;;;;;11.20;7.27;;;;;;;;;;10259391;28;20200;-74
2021/07/30 02:15:37;;;;;;;10.70;6.77;;;;;;;;;;10264777;28;20719;-74
2021/07/30 02:20:40;;;;;;;11.40;7.00;;;;;;;;;;10243211;28;20200;-75
2021/07/30 02:25:44;;;;;;;12.40;6.87;;;;;;;;;;10268849;28;20629;-73
2021/07/30 02:30:46;;;;;;;10.60;6.80;;;;;;;;;;10251841;28;20287;-73
2021/07/30 02:35:49;;;;;;;10.13;6.20;;;;;;;;;;10260947;28;20220;-74
2021/07/30 02:40:53;;;;;;;10.10;6.33;;;;;;;;;;10266726;28;20223;-75
2021/07/30 02:45:55;;;;;;;12.70;7.10;;;;;;;;;;10273336;28;20224;-73
2021/07/30 02:50:58;;;;;;;12.23;7.03;;;;;;;;;;10269311;28;20591;-73
2021/07/30 02:56:02;;;;;;;11.47;6.80;;;;;;;;;;10266394;28;20291;-74
2021/07/30 03:01:04;;;;;;;12.70;7.17;;;;;;;;;;10271651;28;20204;-75
2021/07/30 03:06:07;;;;;;;11.60;6.90;;;;;;;;;;10246574;28;20271;-75
2021/07/30 03:11:11;;;;;;;11.67;6.73;;;;;;;;;;10248159;29;20193;-75
2021/07/30 03:16:13;;;;;;;11.00;7.07;;;;;;;;;;10258228;28;20248;-74
2021/07/30 03:21:16;;;;;;;12.13;7.40;;;;;;;;;;10257969;28;20346;-75
2021/07/30 03:26:20;;;;;;;11.97;7.53;;;;;;;;;;10238317;28;20212;-74
2021/07/30 03:31:23;;;;;;;10.20;6.50;;;;;;;;;;10250026;28;20642;-75
2021/07/30 03:36:25;;;;;;;12.83;7.17;;;;;;;;;;10247450;28;20220;-75
2021/07/30 03:41:29;;;;;;;11.90;6.97;;;;;;;;;;10247060;28;20212;-75
2021/07/30 03:46:31;;;;;;;11.73;6.97;;;;;;;;;;10252336;28;20270;-75
2021/07/30 03:51:34;;;;;;;11.23;6.73;;;;;;;;;;10252119;28;20216;-75
2021/07/30 03:56:41;;;;;;;11.90;6.93;;;;;;;;;;10271653;28;20217;-75
2021/07/30 04:01:47;;;;;;;11.57;6.57;;;;;;;;;;10258181;28;20318;-75
2021/07/30 04:06:50;;;;;;;11.90;6.80;;;;;;;;;;10254441;28;20228;-76
2021/07/30 04:11:53;;;;;;;11.93;6.60;;;;;;;;;;10263282;28;20187;-76
2021/07/30 04:16:56;;;;;;;10.93;6.63;;;;;;;;;;10238302;28;20264;-75
2021/07/30 04:21:59;;;;;;;11.90;6.63;;;;;;;;;;10238161;29;20208;-75
2021/07/30 04:27:03;;;;;;;11.57;6.17;;;;;;;;;;10248824;28;20280;-75
2021/07/30 04:32:06;;;;;;;11.27;6.63;;;;;;;;;;10244462;28;20219;-75
2021/07/30 04:37:09;;;;;;;10.10;6.13;;;;;;;;;;10244867;28;21730;-75
2021/07/30 04:42:13;;;;;;;11.13;6.33;;;;;;;;;;10253193;28;20288;-75
2021/07/30 04:47:15;;;;;;;11.03;6.13;;;;;;;;;;10247753;28;20220;-75
2021/07/30 04:52:18;;;;;;;10.93;6.30;;;;;;;;;;10255057;28;20191;-75
2021/07/30 04:57:22;;;;;;;11.13;7.07;;;;;;;;;;10259528;28;20295;-74
2021/07/30 05:02:24;;;;;;;11.60;6.83;;;;;;;;;;10245891;28;20747;-76
2021/07/30 05:07:27;;;;;;;12.03;6.97;;;;;;;;;;10242412;28;20243;-75
2021/07/30 05:12:31;;;;;;;10.83;6.00;;;;;;;;;;10244156;28;20193;-75
2021/07/30 05:17:35;;;;;;;9.90;5.97;;;;;;;;;;10249691;28;20591;-77
2021/07/30 05:22:38;;;;;;;9.30;5.27;;;;;;;;;;10246562;28;20243;-77
2021/07/30 05:27:42;;;;;;;9.70;5.53;;;;;;;;;;10253458;28;20589;-76
2021/07/30 05:32:45;;;;;;;9.80;5.23;;;;;;;;;;10236880;28;20250;-76
2021/07/30 05:37:47;;;;;;;10.43;5.47;;;;;;;;;;10248073;28;20220;-73
2021/07/30 05:42:51;;;;;;;9.60;5.17;;;;;;;;;;10249353;28;20214;-73
2021/07/30 05:47:54;;;;;;;9.53;5.10;;;;;;;;;;10236295;28;20212;-75
2021/07/30 05:52:56;;;;;;;8.53;4.97;;;;;;;;;;10249369;28;20215;-76
2021/07/30 05:58:00;;;;;;;10.77;5.50;;;;;;;;;;10258172;28;20223;-76
2021/07/30 06:03:03;;;;;;;12.77;5.97;;;;;;;;;;10242525;28;20672;-75
2021/07/30 06:08:06;;;;;;;10.00;6.07;;;;;;;;;;10240089;28;20220;-75
2021/07/30 06:13:10;;;;;;;12.60;6.47;;;;;;;;;;10234531;28;20620;-74
2021/07/30 06:18:14;;;;;;;10.97;6.17;;;;;;;;;;10240416;28;20318;-75
2021/07/30 06:23:16;;;;;;;10.77;6.40;;;;;;;;;;10226034;28;20216;-76
2021/07/30 06:28:20;;;;;;;11.40;6.23;;;;;;;;;;10227576;28;20220;-76
2021/07/30 06:33:25;;;;;;;10.93;6.73;;;;;;;;;;10232171;28;20638;-76
2021/07/30 06:38:28;;;;;;;11.60;6.27;;;;;;;;;;10220148;28;20548;-71
2021/07/30 06:43:32;;;;;;;11.57;6.70;;;;;;;;;;10252424;28;20690;-69
2021/07/30 06:48:34;;;;;;;11.07;6.40;;;;;;;;;;10241114;28;20254;-70
2021/07/30 06:53:37;;;;;;;11.15;6.10;;;;;;;;;;10263519;28;20203;-69
2021/07/30 06:58:41;;;;;;;11.32;6.25;;;;;;;;;;10239415;28;20299;-71
2021/07/30 07:03:44;;;;;;;13.52;5.65;;;;;;;;;;10246791;28;20212;-70
2021/07/30 07:08:47;;;;;;;10.38;5.93;;;;;;;;;;10243605;28;20853;-70
2021/07/30 07:13:50;;;;;;;10.60;6.15;;;;;;;;;;10255241;28;20250;-70
2021/07/30 07:18:53;;;;;;;10.43;5.97;;;;;;;;;;10257552;28;20240;-70
2021/07/30 07:23:55;;;;;;;11.23;6.07;;;;;;;;;;10240633;28;20227;-70
2021/07/30 07:28:59;;;;;;;9.20;6.05;;;;;;;;;;10246223;28;20243;-68
2021/07/30 07:34:02;;;;;;;10.00;5.60;;;;;;;;;;10239634;28;20267;-69
2021/07/30 07:39:04;;;;;;;10.43;5.85;;;;;;;;;;10247659;28;20221;-67
2021/07/30 07:44:08;;;;;;;9.88;5.55;;;;;;;;;;10271092;28;20811;-68
2021/07/30 07:49:11;;;;;;;9.30;5.70;;;;;;;;;;10248727;28;20204;-70
2021/07/30 07:54:13;;;;;;;8.57;5.60;;;;;;;;;;10245312;28;20653;-68
2021/07/30 07:59:17;;;;;;;8.68;5.43;;;;;;;;;;10246574;28;20215;-71
2021/07/30 08:04:20;;;;;;;8.68;5.60;;;;;;;;;;10261169;28;20848;-69
2021/07/30 08:09:22;;;;;;;7.88;5.30;;;;;;;;;;10245590;28;20709;-69
2021/07/30 08:14:26;;;;;;;8.00;5.72;;;;;;;;;;10249855;28;20200;-70
2021/07/30 08:19:29;;;;;;;8.35;5.45;;;;;;;;;;10246081;28;20196;-70
2021/07/30 08:24:31;;;;;;;9.27;5.65;;;;;;;;;;10232753;28;20589;-70
2021/07/30 08:29:35;;;;;;;7.53;5.20;;;;;;;;;;10228019;28;20204;-72
2021/07/30 08:34:38;;;;;;;7.72;5.07;;;;;;;;;;10255665;28;20387;-71
2021/07/30 08:39:41;;;;;;;8.57;5.28;;;;;;;;;;10240542;28;20217;-71
2021/07/30 08:44:45;;;;;;;7.68;5.70;;;;;;;;;;10264888;28;20242;-71
2021/07/30 08:49:47;;;;;;;8.98;7.15;;;;;;;;;;10237973;28;20232;-69
2021/07/30 08:54:51;;;;;;;7.72;5.70;;;;;;;;;;10259690;28;20704;-70
2021/07/30 08:59:55;;;;;;;8.65;5.80;;;;;;;;;;10236919;28;20199;-69
2021/07/30 09:04:57;;;;;;;8.55;5.45;;;;;;;;;;10266487;28;20323;-70
2021/07/30 09:10:00;;;;;;;8.77;5.88;;;;;;;;;;10249912;28;20242;-70
2021/07/30 09:15:20;;;;;;;7.85;5.68;;;;;;;;;;10244876;28;20231;-70
2021/07/30 09:20:23;;;;;;;7.60;6.20;;;;;;;;;;10244795;28;20668;-69
2021/07/30 09:25:35;;;;;;;8.10;5.85;;;;;;;;;;10238047;28;20635;-70
2021/07/30 09:30:39;;;;;;;8.00;5.43;;;;;;;;;;10236560;28;20213;-70
2021/07/30 09:35:56;;;;;;;7.78;5.78;;;;;;;;;;10231365;28;20258;-69
2021/07/30 09:41:12;;;;;;;9.02;6.03;;;;;;;;;;10233293;28;20246;-69
2021/07/30 09:46:16;;;;;;;8.57;5.85;;;;;;;;;;10238353;28;20228;-68
2021/07/30 09:51:20;;;;;;;7.00;5.13;;;;;;;;;;10223599;28;20204;-70
2021/07/30 09:56:23;;;;;;;7.43;5.60;;;;;;;;;;10205592;28;20243;-70
2021/07/30 10:01:27;;;;;;;8.48;5.60;;;;;;;;;;10206635;28;20227;-68
2021/07/30 10:06:30;;;;;;;9.30;5.70;;;;;;;;;;10205026;28;20694;-69
2021/07/30 10:11:38;;;;;;;7.35;5.50;;;;;;;;;;10203593;28;20196;-70
2021/07/30 10:16:50;;;;;;;7.55;5.70;;;;;;;;;;10223609;28;20235;-70
2021/07/30 10:21:53;;;;;;;7.53;6.00;;;;;;;;;;10231385;28;20235;-70
2021/07/30 10:26:57;;;;;;;7.55;5.75;;;;;;;;;;10234125;28;20227;-70
2021/07/30 10:32:01;;;;;;;7.35;5.93;;;;;;;;;;10225712;28;20646;-70
2021/07/30 10:37:03;;;;;;;7.78;5.65;;;;;;;;;;10242010;28;20271;-71
2021/07/30 10:42:10;;;;;;;8.38;5.60;;;;;;;;;;10219434;28;20200;-71
2021/07/30 10:47:20;;;;;;;7.80;5.38;;;;;;;;;;10215281;28;20914;-69
2021/07/30 10:52:27;;;;;;;6.97;5.50;;;;;;;;;;10250217;28;20592;-70
2021/07/30 10:57:49;;;;;;;8.15;5.47;;;;;;;;;;10252660;28;20254;-71
2021/07/30 11:03:04;;;;;;;7.57;5.60;;;;;;;;;;10247778;28;20204;-70
2021/07/30 11:08:07;;;;;;;8.82;5.15;;;;;;;;;;10242257;28;20306;-70
2021/07/30 11:13:13;;;;;;;7.70;5.07;;;;;;;;;;10221859;28;20288;-70
2021/07/30 11:18:17;;;;;;;7.65;5.65;;;;;;;;;;10220754;28;20224;-70
2021/07/30 11:23:21;;;;;;;8.38;5.47;;;;;;;;;;10225789;28;20287;-70
2021/07/30 11:28:24;;;;;;;7.90;5.63;;;;;;;;;;10215523;28;20375;-70
2021/07/30 11:33:28;;;;;;;8.38;5.65;;;;;;;;;;10244460;28;20219;-71
2021/07/30 11:38:47;;;;;;;7.50;5.47;;;;;;;;;;10250284;28;20355;-68
2021/07/30 11:43:56;;;;;;;7.35;5.38;;;;;;;;;;10240319;28;20656;-69
2021/07/30 11:49:00;;;;;;;7.70;5.28;;;;;;;;;;10237501;28;21624;-71
2021/07/30 11:54:03;;;;;;;10.32;6.40;;;;;;;;;;10222816;28;20200;-71
2021/07/30 11:59:06;;;;;;;8.77;5.78;;;;;;;;;;10234523;28;20204;-70
2021/07/30 12:04:10;;;;;;;8.07;5.40;;;;;;;;;;10250436;28;20283;-71
2021/07/30 12:09:14;;;;;;;7.25;5.30;;;;;;;;;;10239428;28;20196;-70
2021/07/30 12:14:17;;;;;;;7.53;5.15;;;;;;;;;;10210690;28;20286;-71
2021/07/30 12:19:28;;;;;;;7.60;5.30;;;;;;;;;;10211015;28;20569;-70
2021/07/30 12:24:31;;;;;;;7.50;5.28;;;;;;;;;;10235978;28;20735;-70
2021/07/30 12:29:37;;;;;;;10.68;5.40;;;;;;;;;;10223474;28;20275;-71
2021/07/30 12:34:41;;;;;;;8.00;6.35;;;;;;;;;;10209030;28;20304;-70
2021/07/30 12:39:44;;;;;;;8.27;5.50;;;;;;;;;;10228123;28;20231;-69
2021/07/30 12:45:03;;;;;;;8.40;5.50;;;;;;;;;;10214647;28;20238;-69
2021/07/30 12:50:29;;;;;;;7.80;5.20;;;;;;;;;;10205926;28;20204;-69
2021/07/30 12:55:32;;;;;;;7.75;5.05;;;;;;;;;;10206593;28;20209;-68
2021/07/30 13:00:34;;;;;;;8.13;5.45;;;;;;;;;;10223124;28;20610;-69
2021/07/30 13:05:39;;;;;;;8.32;5.60;;;;;;;;;;10209631;28;20300;-70
2021/07/30 13:10:41;;;;;;;7.93;5.53;;;;;;;;;;10211838;28;20211;-69
2021/07/30 13:15:44;;;;;;;7.95;5.30;;;;;;;;;;10215891;28;20908;-69
2021/07/30 13:20:49;;;;;;;8.15;5.35;;;;;;;;;;10214038;28;20200;-69
2021/07/30 13:25:51;;;;;;;8.82;6.32;;;;;;;;;;10213083;28;20363;-73
2021/07/30 13:30:55;;;;;;;9.55;5.63;;;;;;;;;;10210544;28;20204;-72
2021/07/30 13:35:59;;;;;;;9.30;5.28;;;;;;;;;;10211117;28;20319;-68
2021/07/30 13:41:02;;;;;;;9.45;6.03;;;;;;;;;;10205258;28;20335;-71
2021/07/30 13:46:04;;;;;;;7.97;5.45;;;;;;;;;;10205308;28;20220;-70
2021/07/30 13:51:08;;;;;;;8.23;5.28;;;;;;;;;;10208685;28;20196;-70
2021/07/30 13:56:11;;;;;;;6.68;4.63;;;;;;;;;;10211222;28;20227;-71
2021/07/30 14:01:17;;;;;;;8.13;5.20;;;;;;;;;;10203183;28;20525;-70
2021/07/30 14:06:21;;;;;;;11.77;9.05;;;;;;;;;;10208996;28;20295;-70
2021/07/30 14:11:24;;;;;;;8.82;5.30;;;;;;;;;;10204644;28;20280;-71
2021/07/30 14:16:27;;;;;;;8.48;5.30;;;;;;;;;;10204408;28;20223;-69
2021/07/30 14:21:32;;;;;;;8.20;5.30;;;;;;;;;;10207142;28;20203;-73
2021/07/30 14:26:34;;;;;;;9.57;6.85;;;;;;;;;;10209356;28;20312;-74
2021/07/30 14:31:37;;;;;;;8.27;5.63;;;;;;;;;;10210751;28;20203;-73
2021/07/30 14:36:41;;;;;;;7.90;5.60;;;;;;;;;;10204211;28;20216;-70
2021/07/30 14:41:44;;;;;;;7.72;5.10;;;;;;;;;;10209560;28;20327;-71
2021/07/30 14:46:47;;;;;;;8.15;5.22;;;;;;;;;;10211255;28;20267;-69
2021/07/30 14:51:51;;;;;;;7.78;4.88;;;;;;;;;;10205610;28;20589;-73
2021/07/30 14:56:54;;;;;;;8.57;5.53;;;;;;;;;;10206819;28;20248;-70
2021/07/30 15:01:57;;;;;;;7.40;4.90;;;;;;;;;;10209155;28;20295;-69
2021/07/30 15:07:01;;;;;;;9.27;5.30;;;;;;;;;;10234455;28;20220;-69
2021/07/30 15:12:04;;;;;;;9.05;5.93;;;;;;;;;;10241597;28;20193;-69
2021/07/30 15:17:06;;;;;;;7.78;5.18;;;;;;;;;;10246740;28;20256;-71
2021/07/30 15:22:11;;;;;;;7.40;5.00;;;;;;;;;;10250193;28;20200;-71
2021/07/30 15:27:14;;;;;;;8.45;5.57;;;;;;;;;;10241736;28;20271;-72
2021/07/30 15:32:16;;;;;;;8.63;5.18;;;;;;;;;;10248558;28;20580;-70
2021/07/30 15:37:20;;;;;;;8.45;5.53;;;;;;;;;;10261088;28;20294;-76
2021/07/30 15:42:23;;;;;;;8.50;5.22;;;;;;;;;;10254483;28;20193;-76
2021/07/30 15:47:30;;;;;;;14.50;10.93;;;;;;;;;;10254452;28;20216;-75
2021/07/30 15:52:34;;;;;;;9.88;5.53;;;;;;;;;;10243953;28;20212;-77
2021/07/30 15:57:38;;;;;;;9.82;6.13;;;;;;;;;;10251044;28;20208;-73
2021/07/30 16:02:40;;;;;;;8.00;5.72;;;;;;;;;;10242750;28;20244;-75
2021/07/30 16:07:44;;;;;;;8.75;5.60;;;;;;;;;;10248707;28;20243;-75
2021/07/30 16:12:47;;;;;;;10.05;5.68;;;;;;;;;;10255069;28;20219;-74
2021/07/30 16:17:49;;;;;;;8.68;5.38;;;;;;;;;;10249606;28;20243;-75
2021/07/30 16:22:53;;;;;;;8.27;5.40;;;;;;;;;;10238006;28;20258;-75
2021/07/30 16:27:56;;;;;;;8.25;5.80;;;;;;;;;;10244586;28;20247;-76
2021/07/30 16:32:58;;;;;;;7.93;5.20;;;;;;;;;;10254886;28;20307;-75
2021/07/30 16:38:02;;;;;;;9.82;6.38;;;;;;;;;;10248930;28;20645;-75
2021/07/30 16:43:05;;;;;;;40.25;35.83;;;;;;;;;;10242132;28;20211;-75
2021/07/30 16:48:07;;;;;;;10.18;5.70;;;;;;;;;;10249218;28;20291;-74
2021/07/30 16:53:11;;;;;;;10.60;6.43;;;;;;;;;;10255150;28;20703;-75
2021/07/30 16:58:13;;;;;;;10.00;7.03;;;;;;;;;;10252361;28;20249;-75
2021/07/30 17:03:16;;;;;;;12.18;5.95;;;;;;;;;;10245816;28;20196;-74
2021/07/30 17:08:20;;;;;;;9.77;6.35;;;;;;;;;;10248190;28;20216;-76
2021/07/30 17:13:22;;;;;;;11.02;5.75;;;;;;;;;;10244621;28;20759;-75
2021/07/30 17:18:25;;;;;;;9.55;5.57;;;;;;;;;;10240516;28;20291;-76
2021/07/30 17:23:29;;;;;;;9.60;5.78;;;;;;;;;;10243714;28;20888;-76
2021/07/30 17:28:31;;;;;;;9.15;6.10;;;;;;;;;;10247788;28;20236;-75
2021/07/30 17:33:34;;;;;;;9.15;5.93;;;;;;;;;;10241238;28;20664;-77
2021/07/30 17:38:38;;;;;;;9.65;6.15;;;;;;;;;;10247220;28;20212;-76
2021/07/30 17:43:41;;;;;;;11.65;7.93;;;;;;;;;;10252138;28;20200;-77
2021/07/30 17:48:43;;;;;;;10.25;6.65;;;;;;;;;;10239691;28;20216;-75
2021/07/30 17:53:47;;;;;;;10.27;6.75;;;;;;;;;;10243600;28;20208;-76
2021/07/30 17:58:50;;;;;;;9.73;6.80;;;;;;;;;;10254953;28;20295;-77
2021/07/30 18:03:52;;;;;;;11.15;6.72;;;;;;;;;;10251968;28;20196;-75
2021/07/30 18:08:56;;;;;;;10.18;6.50;;;;;;;;;;10253606;28;20727;-76
2021/07/30 18:13:59;;;;;;;13.80;9.20;;;;;;;;;;10237344;28;20311;-77
2021/07/30 18:19:02;;;;;;;11.30;6.47;;;;;;;;;;10242580;28;20316;-76
2021/07/30 18:24:07;;;;;;;14.70;7.95;;;;;;;;;;10236157;28;20208;-76
2021/07/30 18:29:10;;;;;;;15.70;8.52;;;;;;;;;;10244603;28;20306;-76
2021/07/30 18:34:13;;;;;;;9.40;5.03;;;;;;;;;;10247920;28;20251;-76
2021/07/30 18:39:17;;;;;;;8.27;4.88;;;;;;;;;;10235034;28;20299;-75
2021/07/30 18:44:19;;;;;;;9.50;4.37;;;;;;;;;;10240916;28;20559;-75
2021/07/30 18:49:22;;;;;;;7.97;4.43;;;;;;;;;;10231796;28;20715;-74
2021/07/30 18:54:26;;;;;;;9.00;5.23;;;;;;;;;;10243554;28;20699;-76
2021/07/30 18:59:28;;;;;;;7.80;4.10;;;;;;;;;;10233767;28;20196;-76
2021/07/30 19:04:31;;;;;;;8.30;3.53;;;;;;;;;;10239356;28;20645;-75
2021/07/30 19:09:35;;;;;;;10.50;5.53;;;;;;;;;;10244060;28;20216;-75
2021/07/30 19:14:37;;;;;;;6.87;3.57;;;;;;;;;;10243878;28;20255;-74
2021/07/30 19:19:40;;;;;;;9.50;4.10;;;;;;;;;;10240079;28;20244;-76
2021/07/30 19:24:44;;;;;;;10.60;5.20;;;;;;;;;;10233408;28;20319;-74
2021/07/30 19:29:46;;;;;;;5.27;2.57;;;;;;;;;;10249050;28;20322;-76
2021/07/30 19:34:49;;;;;;;7.30;4.07;;;;;;;;;;10255562;28;20227;-76
2021/07/30 19:39:53;;;;;;;7.20;3.60;;;;;;;;;;10250608;28;20189;-76
2021/07/30 19:44:56;;;;;;;8.27;3.47;;;;;;;;;;10260085;28;20610;-76
2021/07/30 19:49:58;;;;;;;9.57;4.57;;;;;;;;;;10263940;28;20236;-75
2021/07/30 19:55:04;;;;;;;6.77;3.03;;;;;;;;;;10249841;28;20216;-75
2021/07/30 20:00:07;;;;;;;8.30;2.83;;;;;;;;;;10248361;28;20580;-74
2021/07/30 20:05:10;;;;;;;4.07;2.07;;;;;;;;;;10253578;28;20223;-74
2021/07/30 20:10:15;;;;;;;7.00;3.23;;;;;;;;;;10254778;28;20201;-75
2021/07/30 20:15:17;;;;;;;6.57;2.73;;;;;;;;;;10263943;28;20228;-74
2021/07/30 20:20:20;;;;;;;4.77;2.13;;;;;;;;;;10256261;28;20220;-74
2021/07/30 20:25:24;;;;;;;5.90;2.50;;;;;;;;;;10266497;28;20294;-75
2021/07/30 20:30:27;;;;;;;9.70;4.10;;;;;;;;;;10243109;28;20397;-75
2021/07/30 20:35:29;;;;;;;9.43;4.27;;;;;;;;;;10245201;28;20220;-73
2021/07/30 20:40:33;;;;;;;8.53;4.50;;;;;;;;;;10249867;28;20652;-75
2021/07/30 20:45:35;;;;;;;6.93;3.17;;;;;;;;;;10254884;28;20223;-75
2021/07/30 20:50:38;;;;;;;5.63;2.60;;;;;;;;;;10252797;28;20240;-74
2021/07/30 20:55:42;;;;;;;6.50;2.93;;;;;;;;;;10258997;28;20222;-74
2021/07/30 21:00:44;;;;;;;6.87;2.97;;;;;;;;;;10252668;28;20217;-74
2021/07/30 21:05:47;;;;;;;5.40;2.90;;;;;;;;;;10245007;28;20212;-73
2021/07/30 21:10:51;;;;;;;6.00;2.80;;;;;;;;;;10249139;28;20677;-75
2021/07/30 21:15:54;;;;;;;5.57;2.90;;;;;;;;;;10249807;28;20564;-74
2021/07/30 21:20:56;;;;;;;6.87;3.00;;;;;;;;;;10245441;28;20276;-74
2021/07/30 21:26:00;;;;;;;6.00;2.50;;;;;;;;;;10247895;28;20247;-76
2021/07/30 21:31:03;;;;;;;7.23;2.90;;;;;;;;;;10235655;28;20335;-74
2021/07/30 21:36:05;;;;;;;5.90;2.97;;;;;;;;;;10243109;28;20224;-75
2021/07/30 21:41:09;;;;;;;6.57;2.90;;;;;;;;;;10242761;28;20194;-75
2021/07/30 21:46:15;;;;;;;5.43;3.10;;;;;;;;;;10239250;28;20215;-73
2021/07/30 21:51:18;;;;;;;5.87;2.93;;;;;;;;;;10238922;28;20196;-74
2021/07/30 21:56:22;;;;;;;5.97;2.97;;;;;;;;;;10246878;28;20213;-75
2021/07/30 22:01:25;;;;;;;5.13;2.47;;;;;;;;;;10245060;28;20262;-73
2021/07/30 22:06:28;;;;;;;5.90;3.17;;;;;;;;;;10244384;28;20649;-74
2021/07/30 22:11:32;;;;;;;5.70;2.60;;;;;;;;;;10243832;28;20287;-74
2021/07/30 22:16:34;;;;;;;5.80;2.90;;;;;;;;;;10241860;28;20252;-74
2021/07/30 22:21:37;;;;;;;5.70;2.80;;;;;;;;;;10243356;28;20195;-74
2021/07/30 22:26:41;;;;;;;6.77;3.03;;;;;;;;;;10235747;28;20291;-73
2021/07/30 22:31:43;;;;;;;6.53;3.23;;;;;;;;;;10244039;28;20748;-73
2021/07/30 22:36:46;;;;;;;5.47;2.37;;;;;;;;;;10241102;28;20275;-73
2021/07/30 22:41:55;;;;;;;6.57;2.80;;;;;;;;;;10248595;28;20227;-74
2021/07/30 22:46:57;;;;;;;5.50;2.67;;;;;;;;;;10248782;28;20220;-73
2021/07/30 22:52:00;;;;;;;7.03;3.00;;;;;;;;;;10251057;28;20246;-74
2021/07/30 22:57:04;;;;;;;5.97;2.90;;;;;;;;;;10248735;28;20224;-73
2021/07/30 23:02:06;;;;;;;6.60;2.93;;;;;;;;;;10250749;28;20279;-74
2021/07/30 23:07:10;;;;;;;7.53;3.20;;;;;;;;;;10242201;28;20232;-73
2021/07/30 23:12:14;;;;;;;5.17;2.53;;;;;;;;;;10244299;28;20221;-72
2021/07/30 23:17:17;;;;;;;7.30;3.40;;;;;;;;;;10253494;28;21016;-74
2021/07/30 23:22:19;;;;;;;6.27;3.23;;;;;;;;;;10244207;28;20279;-73
2021/07/30 23:27:25;;;;;;;5.87;2.87;;;;;;;;;;10247408;28;20243;-72
2021/07/30 23:32:28;;;;;;;5.63;3.07;;;;;;;;;;10246460;28;20197;-72
2021/07/30 23:37:30;;;;;;;6.33;3.10;;;;;;;;;;10246745;28;20224;-74
2021/07/30 23:42:35;;;;;;;5.03;2.70;;;;;;;;;;10248150;28;20208;-75
2021/07/30 23:47:37;;;;;;;6.23;2.67;;;;;;;;;;10246131;28;20589;-73
2021/07/30 23:52:40;;;;;;;6.37;3.17;;;;;;;;;;10248904;28;20299;-72
2021/07/30 23:57:44;;;;;;;7.30;2.90;;;;;;;;;;10250861;28;20212;-73
